Here is the Quick Look data you requested

The Data originates at the National Weather Service, and is made available here by the UAlbany Department of Atmospheric and Environmental Sciences

Surface Observations

PHBK 231756Z AUTO VRB04KT 10SM CLR 26/18 A3006 RMK AO2 SLP180 T02560183 10256
 20211 53012=
PHHI 231756Z AUTO 05012KT 10SM CLR 22/19 A3006 RMK AO2 DZB20E29 SLP170 P0000
 60000 T02200188 10227 20210 52011 $=
PHJH 231745Z 05015G25KT 10SM FEW035 25/18 A3004=
PHJR 231753Z 06009G17KT 10SM CLR 27/19 A3006 RMK AO2 SLP184 T02720189 10272
 20222 51013=
PHKO 231753Z 14009KT 10SM FEW070 27/18 A2999 RMK AO2 SLP155 T02720183 10272
 20233 53014=
PHLI 231753Z 06015KT 10SM FEW028 27/20 A3009 RMK AO2 SLP185 T02720200 10272
 20256 51013=
PHMK 231754Z 06011G17KT 10SM CLR 27/18 A3006 RMK AO2 SLP179 T02720178 10272
 20244 51015=
PHNL 231753Z 06014G21KT 10SM FEW029 SCT038 SCT055 SCT160 27/18 A3005 RMK AO2
 SLP174 VCSH SE T02670183 10267 20250 51014=
PHNY 231756Z AUTO 03011KT 10SM CLR 23/18 A3009 RMK AO2 SLP168 T02330178 10239
 20194 51014=
PHOG 231754Z 06017G25KT 10SM FEW035 26/20 A3004 RMK AO2 SLP177 60000 T02610200
 10261 20228 53011=
PHTO 231753Z 24003KT 10SM FEW028 BKN043 OVC060 23/21 A3006 RMK AO2 RAB31E50
 SLP176 P0000 60013 T02330206 10233 20211 51012=